Terminal Aerodrome Forecast
Issued by NWS

Home | Current Version | Previous Version | Text Only | Print | Product List | Glossary On
Versions: 1 2 3 4 5 6 7 8 9 10 11 12 13
000
FTUS42 TJSJ 220500
TAFIST
TAF
TIST 220535Z 2206/2306 09008KT P6SM VCSH FEW030
     FM221300 12015G22KT P6SM FEW030
     FM222300 10010KT P6SM FEW025=

USA.gov is the U.S. government's official web portal to all federal, state and local government web resources and services.